Terminal Aerodrome Forecast
Issued by NWS Sterling, VA

Current Version | Previous Version | Text Only | Print | Product List | Glossary Off
Versions: 1 2 3 4 5 6 7 8 9 10 11 12 13 14 15 16 17 18 19 20 21 22 23 24

000
FTUS41 KLWX 220541
TAFMRB
TAF
KMRB 220541Z 2206/2306 14004KT P6SM OVC025
     FM221000 VRB03KT P6SM OVC015
     FM221100 VRB03KT P6SM OVC008
     FM221200 16004KT 5SM -SHRA OVC008
     FM221800 20005KT P6SM BKN035
     FM222200 26006KT P6SM SCT035
     FM230200 31005KT P6SM FEW250=

USA.gov is the U.S. government's official web portal to all federal, state and local government web resources and services.